Time;durP1;ratioP1;P1;durP2;ratioP2;P2;SDS_P1;SDS_P2;PMS_P1;PMS_P2;Temp;Humidity;BMP_temperature;BMP_pressure;BME280_temperature;BME280_humidity;BME280_pressure;Samples;Min_cycle;Max_cycle;Signal;HPM_P1;HPM_P2
2023/01/31 00:01:59;;;;;;;18.60;5.43;;;4.00;99.90;;;;;;5035900;28;20451;-65
2023/01/31 00:04:26;;;;;;;18.20;5.60;;;3.90;99.90;;;;;;5035699;28;20442;-65
2023/01/31 00:06:53;;;;;;;16.30;5.57;;;4.00;99.90;;;;;;5036296;28;20467;-65
2023/01/31 00:09:21;;;;;;;23.93;5.90;;;4.00;99.90;;;;;;5036281;28;20466;-65
2023/01/31 00:11:48;;;;;;;24.40;6.43;;;4.00;99.90;;;;;;5036633;28;20782;-65
2023/01/31 00:14:19;;;;;;;18.13;5.07;;;4.00;99.90;;;;;;5035796;28;20550;-66
2023/01/31 00:16:48;;;;;;;21.23;5.30;;;4.00;42.30;;;;;;5035977;28;20509;-65
2023/01/31 00:19:16;;;;;;;22.10;5.93;;;4.00;1.00;;;;;;5036093;28;20511;-65
2023/01/31 00:21:46;;;;;;;27.23;6.83;;;4.00;99.90;;;;;;5036246;28;20829;-66
2023/01/31 00:24:17;;;;;;;21.87;6.37;;;4.00;99.90;;;;;;5036110;28;20824;-65
2023/01/31 00:26:55;;;;;;;14.33;5.47;;;4.00;99.90;;;;;;5036404;28;20442;-65
2023/01/31 00:29:37;;;;;;;21.83;5.50;;;4.00;1.00;;;;;;5035718;28;20462;-65
2023/01/31 00:32:15;;;;;;;15.83;5.93;;;4.00;1.00;;;;;;5035543;28;20498;-65
2023/01/31 00:34:42;;;;;;;28.63;6.27;;;4.00;1.00;;;;;;5036262;28;20787;-65
2023/01/31 00:37:16;;;;;;;23.07;5.37;;;4.00;1.00;;;;;;5035918;28;20549;-65
2023/01/31 00:39:46;;;;;;;22.73;5.37;;;4.00;1.00;;;;;;5035745;28;20502;-65
2023/01/31 00:42:13;;;;;;;16.03;4.60;;;4.10;1.00;;;;;;5035558;28;20470;-65
2023/01/31 00:44:40;;;;;;;17.03;5.37;;;4.10;1.00;;;;;;5035723;28;20740;-65
2023/01/31 00:47:18;;;;;;;16.20;5.60;;;4.10;43.10;;;;;;5035715;28;20463;-65
2023/01/31 00:49:48;;;;;;;24.73;5.83;;;4.10;3.50;;;;;;5035681;28;20499;-65
2023/01/31 00:52:15;;;;;;;19.23;5.13;;;4.00;1.00;;;;;;5035911;28;20872;-65
2023/01/31 00:54:42;;;;;;;17.50;5.30;;;4.00;1.00;;;;;;5035750;28;20473;-65
2023/01/31 00:57:10;;;;;;;25.00;6.20;;;4.00;1.00;;;;;;5035413;28;20470;-65
2023/01/31 00:59:37;;;;;;;18.40;6.20;;;4.00;1.00;;;;;;5035763;28;20498;-65
2023/01/31 01:02:04;;;;;;;14.43;4.63;;;4.00;1.00;;;;;;5035936;28;20467;-65
2023/01/31 01:04:32;;;;;;;24.77;6.30;;;4.00;15.90;;;;;;5036021;28;20469;-65
2023/01/31 01:07:00;;;;;;;22.83;5.77;;;4.00;1.00;;;;;;5035822;28;20493;-65
2023/01/31 01:09:27;;;;;;;16.40;4.90;;;4.00;29.60;;;;;;5035586;28;20455;-65
2023/01/31 01:11:54;;;;;;;15.03;6.03;;;4.00;1.00;;;;;;5034556;28;20467;-65
2023/01/31 01:14:21;;;;;;;17.20;6.60;;;4.00;1.00;;;;;;5035660;28;20502;-65
2023/01/31 01:16:49;;;;;;;17.07;5.53;;;4.00;13.90;;;;;;5035519;28;20471;-65
2023/01/31 01:19:18;;;;;;;22.97;5.40;;;3.90;36.40;;;;;;5035226;28;20495;-65
2023/01/31 01:21:46;;;;;;;14.47;6.30;;;4.00;94.20;;;;;;5035364;28;20960;-65
2023/01/31 01:24:17;;;;;;;23.80;5.77;;;3.90;58.70;;;;;;5035804;28;20467;-65
2023/01/31 01:26:45;;;;;;;16.07;5.67;;;3.90;55.90;;;;;;5035833;28;20459;-66
2023/01/31 01:29:12;;;;;;;18.20;5.40;;;3.90;99.90;;;;;;5034867;28;20516;-65
2023/01/31 01:31:40;;;;;;;21.77;4.70;;;3.90;99.90;;;;;;5034864;28;20491;-65
2023/01/31 01:34:12;;;;;;;19.53;5.13;;;3.90;99.90;;;;;;5034987;28;20459;-65
2023/01/31 01:36:39;;;;;;;18.77;5.87;;;3.90;99.90;;;;;;5035471;28;20880;-65
2023/01/31 01:39:09;;;;;;;9.57;4.70;;;3.90;97.80;;;;;;5035013;28;20499;-65
2023/01/31 01:41:38;;;;;;;17.77;5.63;;;3.90;36.20;;;;;;5035237;28;20463;-65
2023/01/31 01:44:20;;;;;;;15.90;5.87;;;3.90;1.00;;;;;;5035062;28;20442;-64
2023/01/31 01:46:47;;;;;;;17.53;5.13;;;3.90;13.60;;;;;;5034849;28;20770;-64
2023/01/31 01:49:21;;;;;;;15.90;5.50;;;3.80;1.00;;;;;;5034622;28;20475;-65
2023/01/31 01:51:51;;;;;;;21.57;5.60;;;3.80;1.00;;;;;;5035174;28;20467;-65
2023/01/31 01:54:26;;;;;;;18.50;5.93;;;3.80;52.20;;;;;;5034435;28;20469;-65
2023/01/31 01:56:59;;;;;;;21.80;5.87;;;3.70;99.90;;;;;;5035397;28;20473;-65
2023/01/31 01:59:30;;;;;;;18.93;5.53;;;3.80;12.40;;;;;;5034707;28;20495;-65
2023/01/31 02:01:58;;;;;;;24.63;5.13;;;3.80;1.00;;;;;;5034221;28;20461;-65
2023/01/31 02:04:29;;;;;;;17.57;6.10;;;3.80;1.00;;;;;;5034905;28;20557;-65
2023/01/31 02:56:13;;;;;;;18.63;4.93;;;3.40;99.90;;;;;;4119573;28;20451;-65
2023/01/31 02:57:15;;;;;;;17.60;6.10;;;3.40;99.90;;;;;;5014332;28;20452;-65
2023/01/31 02:59:43;;;;;;;12.37;4.63;;;3.40;99.90;;;;;;5014434;28;20971;-64
2023/01/31 03:02:12;;;;;;;17.33;5.30;;;3.40;99.90;;;;;;5014364;28;20510;-65
2023/01/31 03:04:40;;;;;;;16.93;6.23;;;3.40;99.90;;;;;;5014538;28;20490;-65
2023/01/31 03:07:13;;;;;;;22.90;5.57;;;3.40;99.90;;;;;;5014333;28;20559;-65
2023/01/31 03:09:53;;;;;;;18.03;6.00;;;3.40;99.90;;;;;;5014182;28;20820;-65
2023/01/31 03:12:36;;;;;;;13.77;4.70;;;3.40;99.90;;;;;;5013745;28;20479;-65
2023/01/31 03:17:30;;;;;;;19.10;6.50;;;3.40;99.90;;;;;;5014277;28;20464;-65
2023/01/31 03:18:19;;;;;;;10.47;4.90;;;3.40;99.90;;;;;;5013890;28;20460;-65
2023/01/31 03:20:53;;;;;;;12.80;4.27;;;3.40;1.00;;;;;;5014644;28;20763;-65
2023/01/31 03:23:28;;;;;;;13.40;4.67;;;3.40;99.90;;;;;;5014129;28;20541;-65
2023/01/31 03:25:58;;;;;;;22.27;6.27;;;3.40;1.00;;;;;;5014399;28;20468;-65
2023/01/31 03:28:30;;;;;;;16.90;5.53;;;3.40;1.00;;;;;;5014098;28;20782;-65
2023/01/31 03:31:04;;;;;;;13.23;4.10;;;3.30;99.90;;;;;;5014192;28;20464;-65
2023/01/31 03:33:35;;;;;;;11.40;4.60;;;3.30;1.00;;;;;;5013785;28;20472;-65
2023/01/31 03:36:10;;;;;;;16.00;6.07;;;3.30;1.00;;;;;;5016135;28;20464;-65
2023/01/31 03:38:48;;;;;;;14.23;4.87;;;3.30;1.00;;;;;;5017552;28;20923;-65
2023/01/31 03:41:23;;;;;;;28.60;5.97;;;3.30;1.00;;;;;;5017318;28;20468;-65
2023/01/31 03:43:58;;;;;;;16.13;4.37;;;3.30;1.00;;;;;;5017567;28;20467;-65
2023/01/31 03:46:31;;;;;;;17.97;5.80;;;3.30;1.00;;;;;;5017191;28;20500;-65
2023/01/31 03:49:01;;;;;;;9.93;4.70;;;3.30;1.00;;;;;;5017136;28;20464;-64
2023/01/31 03:51:31;;;;;;;22.37;4.50;;;3.30;1.00;;;;;;5017402;28;20471;-65
2023/01/31 03:54:02;;;;;;;15.83;5.10;;;3.30;1.00;;;;;;5017197;28;20460;-65
2023/01/31 03:56:37;;;;;;;14.80;4.90;;;3.30;1.00;;;;;;5017158;28;20463;-65
2023/01/31 03:59:09;;;;;;;19.77;5.47;;;3.30;1.00;;;;;;5017135;28;20616;-65
2023/01/31 04:01:41;;;;;;;16.57;5.60;;;3.40;1.00;;;;;;5017226;28;20471;-65
2023/01/31 04:04:13;;;;;;;22.90;5.40;;;3.40;1.00;;;;;;5016490;28;20464;-65
2023/01/31 04:06:41;;;;;;;11.60;4.17;;;3.50;1.00;;;;;;5016606;28;20479;-65
2023/01/31 04:09:08;;;;;;;21.73;6.80;;;3.40;99.90;;;;;;5016931;28;20897;-65
2023/01/31 04:11:39;;;;;;;18.87;5.40;;;3.40;99.90;;;;;;5017029;28;20877;-65
2023/01/31 04:14:07;;;;;;;12.67;4.60;;;3.40;99.90;;;;;;5016727;28;20545;-65
2023/01/31 04:16:34;;;;;;;9.90;5.10;;;3.40;99.90;;;;;;5016766;28;20888;-65
2023/01/31 04:19:01;;;;;;;20.03;4.80;;;3.30;99.90;;;;;;5016765;28;21046;-65
2023/01/31 04:21:28;;;;;;;24.33;5.40;;;3.30;99.90;;;;;;5016873;28;20452;-65
2023/01/31 04:23:56;;;;;;;17.73;5.13;;;3.30;99.90;;;;;;5016641;28;20464;-65
2023/01/31 04:26:23;;;;;;;13.53;5.83;;;3.20;99.90;;;;;;5016224;28;20475;-65
2023/01/31 04:28:51;;;;;;;16.80;5.37;;;3.20;99.90;;;;;;5016731;28;20468;-65
2023/01/31 04:31:19;;;;;;;18.83;7.33;;;3.20;99.90;;;;;;5016455;28;20464;-65
2023/01/31 04:33:46;;;;;;;19.33;6.20;;;3.20;1.00;;;;;;5016502;28;20891;-65
2023/01/31 04:36:13;;;;;;;13.67;5.30;;;3.20;1.00;;;;;;5016284;28;20460;-65
2023/01/31 04:38:40;;;;;;;21.97;7.83;;;3.20;1.00;;;;;;5016447;28;20880;-65
2023/01/31 04:41:08;;;;;;;22.80;6.60;;;3.20;1.00;;;;;;5016305;28;20476;-65
2023/01/31 04:43:35;;;;;;;24.43;7.13;;;3.20;99.90;;;;;;5016363;28;20476;-65
2023/01/31 04:46:03;;;;;;;19.17;5.80;;;3.20;99.90;;;;;;5016061;28;20456;-65
2023/01/31 04:48:31;;;;;;;20.03;6.70;;;3.20;1.00;;;;;;5016128;28;20453;-65
2023/01/31 04:50:58;;;;;;;23.40;6.60;;;3.20;88.30;;;;;;5016373;28;20467;-65
2023/01/31 04:53:25;;;;;;;18.60;6.90;;;3.20;1.00;;;;;;5016288;28;20463;-65
2023/01/31 04:55:54;;;;;;;19.10;6.83;;;3.20;97.70;;;;;;5014965;28;20525;-65
2023/01/31 04:58:21;;;;;;;21.13;7.53;;;3.30;1.00;;;;;;5016035;28;20464;-65
2023/01/31 05:00:48;;;;;;;20.73;6.20;;;3.30;1.00;;;;;;5015853;28;20506;-65
2023/01/31 05:03:17;;;;;;;18.70;6.40;;;3.30;1.00;;;;;;5016324;28;20464;-65
2023/01/31 05:05:44;;;;;;;19.63;7.90;;;3.40;23.60;;;;;;5016009;28;20467;-65
2023/01/31 05:08:11;;;;;;;28.70;8.97;;;3.40;18.40;;;;;;5015537;28;20464;-65
2023/01/31 05:10:38;;;;;;;21.53;7.87;;;3.30;20.70;;;;;;5016055;28;20470;-65
2023/01/31 05:13:06;;;;;;;23.43;9.27;;;3.40;1.00;;;;;;5015905;28;20472;-65
2023/01/31 05:15:33;;;;;;;21.97;7.60;;;3.40;99.90;;;;;;5016195;28;20490;-65
2023/01/31 05:18:02;;;;;;;24.83;8.13;;;3.40;99.90;;;;;;5016062;28;20473;-65
2023/01/31 05:20:35;;;;;;;21.53;8.30;;;3.50;99.90;;;;;;5015747;28;20496;-65
2023/01/31 05:23:02;;;;;;;21.47;9.20;;;3.40;1.00;;;;;;5015658;28;20468;-65
2023/01/31 05:25:30;;;;;;;19.23;8.30;;;3.50;1.00;;;;;;5016027;28;20472;-65
2023/01/31 05:27:57;;;;;;;27.33;8.90;;;3.40;1.00;;;;;;5015486;28;20468;-65
2023/01/31 05:30:24;;;;;;;22.90;9.03;;;3.50;1.00;;;;;;5015365;28;20783;-65
2023/01/31 05:32:51;;;;;;;23.90;8.90;;;3.50;1.00;;;;;;5015560;28;20739;-65
2023/01/31 05:35:19;;;;;;;21.43;9.17;;;3.40;1.00;;;;;;5015055;28;20464;-65
2023/01/31 05:37:48;;;;;;;16.90;9.03;;;3.50;1.00;;;;;;5015393;28;20470;-65
2023/01/31 05:40:17;;;;;;;22.43;9.17;;;3.50;99.90;;;;;;5014664;28;20506;-65
2023/01/31 05:42:44;;;;;;;16.57;9.10;;;3.50;99.90;;;;;;5015863;28;20468;-65
2023/01/31 05:45:15;;;;;;;22.93;9.63;;;3.60;99.90;;;;;;5015456;28;20457;-65
2023/01/31 05:47:42;;;;;;;25.07;11.13;;;3.50;99.90;;;;;;5015539;28;20525;-65
2023/01/31 05:50:10;;;;;;;22.13;9.67;;;3.50;99.90;;;;;;5015235;28;20812;-65
2023/01/31 05:52:38;;;;;;;23.57;9.17;;;3.50;99.90;;;;;;5016126;28;20464;-65
2023/01/31 05:55:07;;;;;;;27.43;10.30;;;3.50;1.00;;;;;;5014791;28;20484;-65
2023/01/31 05:57:34;;;;;;;30.03;9.83;;;3.50;99.90;;;;;;5014721;28;20773;-65
2023/01/31 06:00:01;;;;;;;22.10;9.90;;;3.50;99.90;;;;;;5015275;28;20492;-65
2023/01/31 06:02:29;;;;;;;22.80;9.40;;;3.50;99.90;;;;;;5014585;28;20475;-65
2023/01/31 06:04:56;;;;;;;22.60;10.07;;;3.50;99.90;;;;;;5014992;28;20562;-65
2023/01/31 06:07:23;;;;;;;16.57;9.97;;;3.50;1.00;;;;;;5014976;28;20760;-66
2023/01/31 06:09:50;;;;;;;26.07;9.83;;;3.50;90.00;;;;;;5015217;28;20528;-66
2023/01/31 06:12:19;;;;;;;24.67;9.10;;;3.50;1.00;;;;;;5015008;28;20571;-65
2023/01/31 06:14:46;;;;;;;27.90;9.83;;;3.50;58.90;;;;;;5014517;28;20473;-65
2023/01/31 06:17:13;;;;;;;19.33;9.13;;;3.50;54.30;;;;;;5012072;28;20515;-65
2023/01/31 06:19:40;;;;;;;23.63;8.93;;;3.60;99.90;;;;;;5034164;28;20797;-65
2023/01/31 06:22:08;;;;;;;26.37;9.90;;;3.60;1.00;;;;;;5022231;28;20471;-65
2023/01/31 06:24:35;;;;;;;21.83;11.27;;;3.60;11.80;;;;;;5033889;28;20464;-64
2023/01/31 06:27:02;;;;;;;22.87;9.77;;;3.70;62.30;;;;;;5034227;28;20471;-65
2023/01/31 06:29:30;;;;;;;22.83;9.30;;;3.70;1.00;;;;;;5034535;28;20867;-65
2023/01/31 06:31:58;;;;;;;30.17;10.53;;;3.70;99.90;;;;;;5034458;28;20740;-65
2023/01/31 06:34:25;;;;;;;28.43;10.37;;;3.80;1.00;;;;;;5034151;28;20481;-65
2023/01/31 06:36:52;;;;;;;32.63;9.63;;;3.80;99.90;;;;;;5033662;28;20447;-65
2023/01/31 06:39:19;;;;;;;26.00;11.53;;;3.80;99.90;;;;;;5032527;28;20460;-65
2023/01/31 06:41:46;;;;;;;25.63;10.20;;;3.80;27.80;;;;;;5026832;28;20884;-66
2023/01/31 06:44:13;;;;;;;26.27;9.33;;;3.90;1.00;;;;;;5027491;28;20470;-63
2023/01/31 06:46:42;;;;;;;25.73;9.70;;;3.90;1.00;;;;;;5032414;28;20883;-63
2023/01/31 06:49:09;;;;;;;24.57;10.17;;;3.80;1.00;;;;;;5032198;28;20987;-63
2023/01/31 06:51:36;;;;;;;28.30;9.70;;;3.80;1.00;;;;;;5032781;28;20573;-63
2023/01/31 06:54:03;;;;;;;21.27;9.87;;;3.80;1.00;;;;;;5032297;28;20554;-63
2023/01/31 06:56:30;;;;;;;25.57;9.23;;;3.80;1.00;;;;;;5033707;28;20462;-63
2023/01/31 06:58:57;;;;;;;25.77;10.50;;;3.80;1.00;;;;;;5033114;28;20745;-62
2023/01/31 07:01:25;;;;;;;17.63;8.60;;;3.80;1.00;;;;;;5032171;28;20498;-62
2023/01/31 07:03:54;;;;;;;21.83;9.20;;;3.80;1.00;;;;;;5032636;28;20498;-63
2023/01/31 07:06:21;;;;;;;26.13;9.53;;;3.80;1.00;;;;;;5032139;28;20474;-63
2023/01/31 07:08:49;;;;;;;29.13;11.20;;;3.80;1.00;;;;;;5032476;28;20878;-62
2023/01/31 07:11:16;;;;;;;22.50;9.10;;;3.80;1.00;;;;;;5035775;28;20773;-63
2023/01/31 07:13:45;;;;;;;25.03;9.40;;;3.90;1.00;;;;;;5036120;28;20744;-63
2023/01/31 07:16:12;;;;;;;18.13;8.37;;;3.90;1.00;;;;;;5037182;28;20799;-63
2023/01/31 07:18:39;;;;;;;23.37;9.77;;;3.80;1.00;;;;;;5036922;28;20553;-62
2023/01/31 07:21:09;;;;;;;27.00;8.87;;;3.90;1.00;;;;;;5036889;28;20499;-64
2023/01/31 07:23:36;;;;;;;20.20;8.67;;;3.80;1.00;;;;;;5037340;28;20946;-63
2023/01/31 07:26:04;;;;;;;18.37;8.20;;;3.90;1.00;;;;;;5037361;28;20878;-63
2023/01/31 07:28:32;;;;;;;18.90;8.70;;;3.90;1.00;;;;;;5036585;28;20470;-64
2023/01/31 07:31:05;;;;;;;17.07;8.63;;;3.90;1.00;;;;;;5036791;28;20459;-63
2023/01/31 07:33:33;;;;;;;25.83;8.57;;;3.90;1.00;;;;;;5037184;28;20489;-63
2023/01/31 07:36:02;;;;;;;25.97;9.13;;;3.90;1.00;;;;;;5037236;28;20471;-63
2023/01/31 07:38:30;;;;;;;24.37;8.80;;;3.90;1.00;;;;;;5036615;28;20470;-63
2023/01/31 07:41:00;;;;;;;17.70;8.50;;;4.00;1.00;;;;;;5036741;28;20490;-63
2023/01/31 07:43:27;;;;;;;21.67;9.10;;;4.00;1.00;;;;;;5037108;28;20471;-63
2023/01/31 07:45:54;;;;;;;24.03;10.30;;;4.00;99.90;;;;;;5037274;28;20760;-63
2023/01/31 07:48:23;;;;;;;23.83;8.47;;;4.00;99.90;;;;;;5036701;28;20474;-63
2023/01/31 07:50:51;;;;;;;14.37;7.73;;;4.00;99.90;;;;;;5036476;28;20512;-63
2023/01/31 07:53:18;;;;;;;24.10;8.23;;;4.00;99.90;;;;;;5036517;28;20892;-63
2023/01/31 07:55:47;;;;;;;24.90;8.43;;;4.00;99.90;;;;;;5035578;28;20494;-63
2023/01/31 07:58:14;;;;;;;19.60;7.87;;;4.10;99.90;;;;;;5035595;28;20527;-63
2023/01/31 08:03:35;;;;;;;19.33;6.10;;;4.10;99.90;;;;;;5035563;28;20775;-63
2023/01/31 08:06:04;;;;;;;19.70;7.17;;;4.10;99.90;;;;;;5036738;28;20441;-62
2023/01/31 08:08:31;;;;;;;22.63;8.10;;;4.10;99.90;;;;;;5036389;28;20471;-63
2023/01/31 08:11:00;;;;;;;19.00;8.10;;;4.10;99.90;;;;;;5036492;28;20468;-63
2023/01/31 08:13:27;;;;;;;25.23;7.73;;;4.20;99.90;;;;;;5036572;28;20493;-62
2023/01/31 08:15:54;;;;;;;18.23;7.63;;;4.20;99.90;;;;;;5035961;28;20477;-63
2023/01/31 08:18:21;;;;;;;17.73;6.77;;;4.20;99.90;;;;;;5036743;28;20470;-63
2023/01/31 08:20:48;;;;;;;14.03;5.87;;;4.30;99.90;;;;;;5035701;28;20487;-63
2023/01/31 08:23:16;;;;;;;12.97;6.63;;;4.30;99.90;;;;;;5036285;28;20464;-63
2023/01/31 08:25:43;;;;;;;20.27;7.57;;;4.30;99.90;;;;;;5037453;27;20430;-63
2023/01/31 08:28:11;;;;;;;12.20;5.57;;;4.30;99.90;;;;;;5037625;27;20474;-63
2023/01/31 08:30:41;;;;;;;15.87;7.00;;;4.40;97.80;;;;;;5035917;28;20467;-62
2023/01/31 08:33:09;;;;;;;16.93;6.57;;;4.40;90.90;;;;;;5036106;28;20463;-63
2023/01/31 08:35:36;;;;;;;15.73;5.43;;;4.40;57.30;;;;;;5035790;28;20855;-63
2023/01/31 08:38:04;;;;;;;24.30;6.43;;;4.40;99.90;;;;;;5036000;28;20459;-63
2023/01/31 08:40:32;;;;;;;11.90;6.53;;;4.50;91.70;;;;;;5035582;28;20498;-63
2023/01/31 08:43:00;;;;;;;16.33;4.90;;;4.50;58.80;;;;;;5035722;28;20471;-63
2023/01/31 08:45:31;;;;;;;17.23;6.43;;;4.50;23.40;;;;;;5035307;28;20520;-63
2023/01/31 08:47:59;;;;;;;15.03;6.40;;;4.60;37.70;;;;;;5035826;28;20463;-63
2023/01/31 08:50:28;;;;;;;11.67;4.97;;;4.50;11.60;;;;;;5034838;28;20459;-63
2023/01/31 08:52:56;;;;;;;14.47;5.63;;;4.50;20.50;;;;;;5034726;28;20463;-63
2023/01/31 08:55:24;;;;;;;17.20;5.97;;;4.50;33.50;;;;;;5034453;28;20487;-62
2023/01/31 08:57:52;;;;;;;18.20;5.97;;;4.60;1.00;;;;;;5033809;28;20464;-62
2023/01/31 09:00:21;;;;;;;17.73;6.07;;;4.60;1.00;;;;;;5033058;28;20923;-63
2023/01/31 09:02:53;;;;;;;19.07;6.17;;;4.50;1.00;;;;;;5062636;27;20766;-64
2023/01/31 09:05:21;;;;;;;17.10;6.13;;;4.50;1.00;;;;;;5076409;27;20724;-63
2023/01/31 09:07:48;;;;;;;13.70;5.10;;;4.50;40.00;;;;;;5032184;28;20463;-65
2023/01/31 09:10:16;;;;;;;19.03;5.10;;;4.60;99.90;;;;;;5032333;28;20496;-64
2023/01/31 09:12:43;;;;;;;16.50;5.03;;;4.70;99.90;;;;;;5037549;27;20788;-65
2023/01/31 09:15:11;;;;;;;17.97;5.40;;;4.70;99.90;;;;;;5034513;28;20466;-64
2023/01/31 09:17:39;;;;;;;13.23;5.03;;;4.60;99.90;;;;;;5035229;28;20463;-62
2023/01/31 09:20:11;;;;;;;17.37;5.20;;;4.60;99.90;;;;;;5034699;28;20459;-58
2023/01/31 09:22:38;;;;;;;17.27;5.30;;;4.70;1.00;;;;;;5034946;28;20481;-58
2023/01/31 09:25:07;;;;;;;13.37;5.30;;;4.70;1.00;;;;;;5034976;28;20463;-60
2023/01/31 09:27:36;;;;;;;17.40;5.60;;;4.70;9.90;;;;;;5035072;28;20467;-59
2023/01/31 09:30:04;;;;;;;13.70;5.53;;;4.80;38.30;;;;;;5035382;28;20472;-62
2023/01/31 09:32:32;;;;;;;15.43;5.30;;;4.60;1.00;;;;;;5034017;28;20463;-62
2023/01/31 09:34:59;;;;;;;17.07;5.63;;;4.50;1.00;;;;;;5034567;28;20471;-58
2023/01/31 09:37:29;;;;;;;13.40;4.70;;;4.50;99.90;;;;;;5033380;28;20463;-61
2023/01/31 09:39:57;;;;;;;13.33;5.80;;;4.40;99.90;;;;;;5033723;28;20470;-62
2023/01/31 09:42:27;;;;;;;24.83;5.90;;;4.30;1.00;;;;;;5032824;28;20498;-60
2023/01/31 09:45:00;;;;;;;13.00;5.00;;;4.40;23.90;;;;;;5032534;28;20904;-60
2023/01/31 09:47:31;;;;;;;14.47;5.20;;;4.40;1.00;;;;;;5032514;28;21971;-62
2023/01/31 09:50:03;;;;;;;19.67;6.03;;;4.50;1.00;;;;;;5032677;28;20499;-62
2023/01/31 09:52:32;;;;;;;13.10;5.60;;;4.50;99.90;;;;;;5033999;28;20470;-62
2023/01/31 09:54:59;;;;;;;12.80;5.40;;;4.50;99.90;;;;;;5033193;28;20483;-61
2023/01/31 09:57:35;;;;;;;15.00;5.83;;;4.50;99.90;;;;;;5034450;28;20451;-61
2023/01/31 10:00:13;;;;;;;10.73;4.50;;;4.60;99.90;;;;;;5035726;28;20525;-61
2023/01/31 10:03:17;;;;;;;14.80;4.63;;;4.50;53.50;;;;;;5035209;28;20501;-62
2023/01/31 10:05:50;;;;;;;16.20;6.00;;;4.50;92.10;;;;;;5035845;28;20519;-61
2023/01/31 10:08:33;;;;;;;16.93;5.63;;;4.50;1.00;;;;;;5035259;28;20467;-62
2023/01/31 10:11:03;;;;;;;12.53;5.53;;;4.50;98.90;;;;;;5035358;28;20561;-61
2023/01/31 10:13:35;;;;;;;7.73;4.30;;;4.50;99.90;;;;;;5035400;28;20474;-62
2023/01/31 10:16:14;;;;;;;13.17;4.97;;;4.50;99.90;;;;;;5035665;28;20463;-62
2023/01/31 10:18:44;;;;;;;17.80;6.00;;;4.50;99.90;;;;;;5034991;28;20745;-62
2023/01/31 10:21:15;;;;;;;20.93;5.60;;;4.60;99.90;;;;;;5035146;28;20499;-62
2023/01/31 10:23:48;;;;;;;13.20;5.30;;;4.60;99.90;;;;;;5035621;28;20898;-63
2023/01/31 10:26:21;;;;;;;12.50;5.80;;;4.70;99.90;;;;;;5035331;28;20507;-62
2023/01/31 10:28:53;;;;;;;13.50;6.50;;;4.70;99.90;;;;;;5035462;28;20959;-62
2023/01/31 10:31:29;;;;;;;11.40;5.53;;;4.70;99.90;;;;;;5035509;28;20444;-62
2023/01/31 10:34:01;;;;;;;11.17;5.47;;;4.70;99.90;;;;;;5035411;28;20462;-62
2023/01/31 10:36:32;;;;;;;13.13;6.20;;;4.70;99.90;;;;;;5035096;28;20463;-62
2023/01/31 10:39:06;;;;;;;16.37;5.60;;;4.70;99.90;;;;;;5035354;28;20517;-63
2023/01/31 10:41:43;;;;;;;16.43;5.50;;;4.80;99.90;;;;;;5033278;28;20487;-63
2023/01/31 10:44:21;;;;;;;15.10;5.23;;;4.80;99.90;;;;;;5032406;28;20455;-63
2023/01/31 10:46:48;;;;;;;8.93;5.43;;;4.70;99.90;;;;;;5033331;28;20939;-63
2023/01/31 10:49:15;;;;;;;11.83;5.83;;;4.70;99.90;;;;;;5033529;28;20471;-63
2023/01/31 10:51:57;;;;;;;13.03;5.60;;;4.70;99.90;;;;;;5032392;28;20470;-64
2023/01/31 10:54:39;;;;;;;12.03;4.93;;;4.70;99.90;;;;;;5031275;28;20470;-63
2023/01/31 10:57:06;;;;;;;14.57;5.30;;;4.70;99.90;;;;;;5031816;28;20490;-63
2023/01/31 10:59:37;;;;;;;16.43;6.23;;;4.70;99.90;;;;;;5032875;28;20472;-62
2023/01/31 11:02:05;;;;;;;11.73;6.07;;;4.70;99.90;;;;;;5031916;28;20487;-63
2023/01/31 11:04:37;;;;;;;12.30;6.13;;;4.70;99.90;;;;;;5033144;28;20475;-64
2023/01/31 11:07:05;;;;;;;14.33;6.13;;;4.80;99.90;;;;;;5035096;28;20741;-64
2023/01/31 11:09:38;;;;;;;14.90;6.80;;;4.70;99.90;;;;;;5034812;28;20512;-64
2023/01/31 11:12:07;;;;;;;13.10;7.33;;;4.70;99.90;;;;;;5034284;28;20474;-64
2023/01/31 11:14:35;;;;;;;20.17;7.87;;;4.80;99.90;;;;;;5034134;28;20461;-63
2023/01/31 11:17:07;;;;;;;11.20;6.20;;;4.70;99.90;;;;;;5033790;28;20468;-63
2023/01/31 11:19:39;;;;;;;15.60;6.90;;;4.70;99.90;;;;;;5034173;28;20903;-64
2023/01/31 11:22:08;;;;;;;17.93;8.03;;;4.80;99.90;;;;;;5033623;28;20494;-64
2023/01/31 11:24:41;;;;;;;15.67;7.43;;;4.70;99.90;;;;;;5033076;28;20905;-63
2023/01/31 11:27:24;;;;;;;15.80;7.67;;;4.70;99.90;;;;;;5034145;28;20530;-63
2023/01/31 11:29:53;;;;;;;23.87;8.83;;;4.80;99.90;;;;;;5034249;28;20467;-63
2023/01/31 11:32:23;;;;;;;23.50;7.70;;;4.80;99.90;;;;;;5034000;28;20455;-63
2023/01/31 11:34:58;;;;;;;17.83;8.87;;;4.80;99.90;;;;;;5034094;28;20467;-63
2023/01/31 11:37:25;;;;;;;14.23;8.20;;;4.80;99.90;;;;;;5034155;28;20459;-64
2023/01/31 11:39:59;;;;;;;18.00;9.27;;;4.80;99.90;;;;;;5034314;28;20463;-63
2023/01/31 11:42:27;;;;;;;15.57;8.40;;;4.80;99.90;;;;;;5033791;28;20961;-63
2023/01/31 11:44:56;;;;;;;16.40;8.17;;;4.80;99.90;;;;;;5026324;28;20471;-63
2023/01/31 11:47:33;;;;;;;19.27;9.10;;;4.80;99.90;;;;;;5032799;28;20450;-63
2023/01/31 11:50:01;;;;;;;14.80;10.87;;;4.80;99.90;;;;;;5033793;28;20737;-63
2023/01/31 11:52:31;;;;;;;16.93;8.17;;;4.80;99.90;;;;;;5033927;28;20461;-63
2023/01/31 11:55:03;;;;;;;19.87;8.77;;;4.80;99.90;;;;;;5033681;28;20487;-63
2023/01/31 11:57:33;;;;;;;16.67;8.83;;;4.80;99.90;;;;;;5035226;28;20506;-63
2023/01/31 12:00:02;;;;;;;21.20;12.33;;;4.80;99.90;;;;;;5037586;27;20470;-63
2023/01/31 12:02:36;;;;;;;20.70;9.30;;;4.90;99.90;;;;;;5025425;28;20491;-63
2023/01/31 12:05:10;;;;;;;18.00;11.73;;;4.90;99.90;;;;;;5036874;28;20511;-63
2023/01/31 12:07:46;;;;;;;24.27;12.43;;;5.00;99.90;;;;;;5037214;28;20849;-63
2023/01/31 12:10:33;;;;;;;22.20;13.27;;;5.00;99.90;;;;;;5037170;28;20824;-63
2023/01/31 12:13:04;;;;;;;22.40;11.73;;;5.00;99.90;;;;;;5036359;27;20477;-63
2023/01/31 12:15:32;;;;;;;20.23;11.03;;;5.00;99.90;;;;;;5037183;28;20463;-63
2023/01/31 12:18:01;;;;;;;19.17;13.53;;;5.10;99.90;;;;;;5036967;28;20502;-63
2023/01/31 12:20:41;;;;;;;21.13;13.47;;;5.00;99.90;;;;;;5036789;28;20456;-64
2023/01/31 12:23:20;;;;;;;19.30;9.20;;;5.10;99.90;;;;;;5035276;28;20503;-63
2023/01/31 12:26:00;;;;;;;31.20;12.80;;;5.00;99.90;;;;;;5073063;27;20571;-63
2023/01/31 12:28:37;;;;;;;19.43;11.30;;;5.00;99.90;;;;;;5032128;28;20467;-62
2023/01/31 12:31:23;;;;;;;18.63;11.20;;;5.10;99.90;;;;;;5035467;28;20466;-62
2023/01/31 12:34:06;;;;;;;23.40;13.90;;;5.10;99.90;;;;;;5036102;28;20556;-63
2023/01/31 12:36:41;;;;;;;18.97;11.70;;;5.10;99.90;;;;;;5033747;28;20463;-63
2023/01/31 12:39:20;;;;;;;22.10;14.43;;;5.10;99.90;;;;;;5035799;28;20463;-62
2023/01/31 12:42:00;;;;;;;24.97;12.07;;;5.00;99.90;;;;;;5035432;28;20804;-62
2023/01/31 12:44:43;;;;;;;21.17;13.50;;;5.00;99.90;;;;;;5035532;28;20448;-62
2023/01/31 12:47:43;;;;;;;15.90;11.47;;;5.00;99.90;;;;;;5035627;28;20471;-62
2023/01/31 12:50:27;;;;;;;22.80;14.40;;;5.10;99.90;;;;;;5035331;28;20467;-62
2023/01/31 12:53:20;;;;;;;20.50;15.20;;;5.00;99.90;;;;;;5033216;28;20442;-63
2023/01/31 12:56:00;;;;;;;25.97;14.63;;;5.10;99.90;;;;;;5033715;28;20487;-62
2023/01/31 12:58:44;;;;;;;26.43;14.30;;;5.10;99.90;;;;;;5035725;28;20806;-62
2023/01/31 13:01:16;;;;;;;28.43;17.23;;;5.00;99.90;;;;;;5038766;27;20427;-62
2023/01/31 13:03:55;;;;;;;25.73;17.13;;;5.10;99.90;;;;;;5035815;28;20469;-63
2023/01/31 13:06:27;;;;;;;31.47;16.77;;;5.10;99.90;;;;;;5035585;28;20470;-62
2023/01/31 13:08:59;;;;;;;26.57;17.50;;;5.10;99.90;;;;;;5034633;28;20558;-63
2023/01/31 13:11:33;;;;;;;26.00;16.53;;;5.10;99.90;;;;;;5035308;28;20440;-63
2023/01/31 13:14:05;;;;;;;24.40;14.73;;;5.10;99.90;;;;;;5035337;28;20544;-64
2023/01/31 13:16:36;;;;;;;25.47;17.80;;;5.20;99.90;;;;;;5034783;28;20875;-64
2023/01/31 13:19:07;;;;;;;19.70;13.87;;;5.20;99.90;;;;;;5035574;28;20467;-63
2023/01/31 13:21:37;;;;;;;27.67;17.03;;;5.30;99.90;;;;;;5035613;28;20466;-64
2023/01/31 13:24:11;;;;;;;27.43;18.83;;;5.30;99.90;;;;;;5034548;28;20468;-63
2023/01/31 13:26:43;;;;;;;28.40;20.33;;;5.40;99.90;;;;;;5044178;27;20788;-63
2023/01/31 13:29:16;;;;;;;36.83;23.57;;;5.30;99.90;;;;;;5058475;27;20471;-62
2023/01/31 13:31:47;;;;;;;40.43;23.90;;;5.30;99.90;;;;;;5031610;28;20459;-62
2023/01/31 13:34:21;;;;;;;32.80;20.80;;;5.30;99.90;;;;;;5032046;28;20475;-63
2023/01/31 13:36:51;;;;;;;40.37;29.00;;;5.30;99.90;;;;;;5029636;28;20464;-63
2023/01/31 13:39:23;;;;;;;40.13;26.37;;;5.30;99.90;;;;;;5031223;28;20517;-63
2023/01/31 13:41:51;;;;;;;32.40;20.57;;;5.30;99.90;;;;;;5033107;28;20487;-63
2023/01/31 13:44:20;;;;;;;37.53;24.20;;;5.30;99.90;;;;;;5023631;28;20479;-63
2023/01/31 13:46:52;;;;;;;25.13;17.83;;;5.30;99.90;;;;;;5033741;28;20551;-62
2023/01/31 13:49:25;;;;;;;41.30;25.30;;;5.30;99.90;;;;;;5031708;28;20467;-63
2023/01/31 13:51:55;;;;;;;31.10;20.27;;;5.30;99.90;;;;;;5030252;28;20848;-63
2023/01/31 13:54:26;;;;;;;24.57;15.40;;;5.40;99.90;;;;;;5030332;28;20487;-62
2023/01/31 13:56:55;;;;;;;57.97;30.73;;;5.40;99.90;;;;;;5030614;28;20467;-64